sensor_id;sensor_type;location;lat;lon;timestamp;temperature;humidity
42905;DHT22;28550;51.228;4.528;2022-10-22T00:00:51;13.90;99.90
42905;DHT22;28550;51.228;4.528;2022-10-22T00:03:17;13.90;99.90
42905;DHT22;28550;51.228;4.528;2022-10-22T00:05:42;14.00;99.90
42905;DHT22;28550;51.228;4.528;2022-10-22T00:08:08;13.90;99.90
42905;DHT22;28550;51.228;4.528;2022-10-22T00:10:38;13.90;99.90
42905;DHT22;28550;51.228;4.528;2022-10-22T00:13:03;14.00;99.90
42905;DHT22;28550;51.228;4.528;2022-10-22T00:15:29;13.90;99.90
42905;DHT22;28550;51.228;4.528;2022-10-22T00:17:54;14.00;99.90
42905;DHT22;28550;51.228;4.528;2022-10-22T00:20:20;13.90;99.90
42905;DHT22;28550;51.228;4.528;2022-10-22T00:22:45;13.90;99.90
42905;DHT22;28550;51.228;4.528;2022-10-22T00:25:11;13.90;99.90
42905;DHT22;28550;51.228;4.528;2022-10-22T00:27:36;13.90;99.90
42905;DHT22;28550;51.228;4.528;2022-10-22T00:30:02;13.90;99.90
42905;DHT22;28550;51.228;4.528;2022-10-22T00:32:27;13.90;99.90
42905;DHT22;28550;51.228;4.528;2022-10-22T00:34:53;14.00;99.90
42905;DHT22;28550;51.228;4.528;2022-10-22T00:37:18;14.00;99.90
42905;DHT22;28550;51.228;4.528;2022-10-22T00:39:44;14.00;99.90
42905;DHT22;28550;51.228;4.528;2022-10-22T00:42:15;14.00;99.90
42905;DHT22;28550;51.228;4.528;2022-10-22T00:47:26;14.00;99.90
42905;DHT22;28550;51.228;4.528;2022-10-22T00:49:52;14.00;99.90
42905;DHT22;28550;51.228;4.528;2022-10-22T00:52:19;14.00;99.90
42905;DHT22;28550;51.228;4.528;2022-10-22T00:54:45;14.00;99.90
42905;DHT22;28550;51.228;4.528;2022-10-22T00:57:11;14.00;99.90
42905;DHT22;28550;51.228;4.528;2022-10-22T00:59:36;13.90;99.90
42905;DHT22;28550;51.228;4.528;2022-10-22T01:02:02;13.90;99.90
42905;DHT22;28550;51.228;4.528;2022-10-22T01:04:28;14.00;99.90
42905;DHT22;28550;51.228;4.528;2022-10-22T01:06:53;13.90;99.90
42905;DHT22;28550;51.228;4.528;2022-10-22T01:12:08;13.90;99.90
42905;DHT22;28550;51.228;4.528;2022-10-22T01:14:51;13.90;99.90
42905;DHT22;28550;51.228;4.528;2022-10-22T01:24:41;14.00;99.50
42905;DHT22;28550;51.228;4.528;2022-10-22T01:32:10;13.90;99.90
42905;DHT22;28550;51.228;4.528;2022-10-22T01:34:37;13.90;99.90
42905;DHT22;28550;51.228;4.528;2022-10-22T01:37:03;13.90;99.90
42905;DHT22;28550;51.228;4.528;2022-10-22T01:39:29;13.90;99.40
42905;DHT22;28550;51.228;4.528;2022-10-22T01:41:55;14.00;99.90
42905;DHT22;28550;51.228;4.528;2022-10-22T01:44:34;14.00;99.90
42905;DHT22;28550;51.228;4.528;2022-10-22T01:49:57;14.00;99.90
42905;DHT22;28550;51.228;4.528;2022-10-22T01:52:38;14.10;99.90
42905;DHT22;28550;51.228;4.528;2022-10-22T02:00:19;14.00;99.50
42905;DHT22;28550;51.228;4.528;2022-10-22T02:02:59;14.00;99.70
42905;DHT22;28550;51.228;4.528;2022-10-22T02:05:35;13.90;99.60
42905;DHT22;28550;51.228;4.528;2022-10-22T02:08:05;13.90;99.50
42905;DHT22;28550;51.228;4.528;2022-10-22T02:10:34;13.80;99.10
42905;DHT22;28550;51.228;4.528;2022-10-22T02:13:01;13.70;99.50
42905;DHT22;28550;51.228;4.528;2022-10-22T02:15:27;13.70;99.00
42905;DHT22;28550;51.228;4.528;2022-10-22T02:17:54;13.70;98.70
42905;DHT22;28550;51.228;4.528;2022-10-22T02:20:29;13.70;98.50
42905;DHT22;28550;51.228;4.528;2022-10-22T02:22:55;13.60;98.20
42905;DHT22;28550;51.228;4.528;2022-10-22T02:25:22;13.60;97.90
42905;DHT22;28550;51.228;4.528;2022-10-22T02:28:36;13.60;98.40
42905;DHT22;28550;51.228;4.528;2022-10-22T02:30:35;13.40;98.30
42905;DHT22;28550;51.228;4.528;2022-10-22T02:33:02;13.40;98.40
42905;DHT22;28550;51.228;4.528;2022-10-22T02:35:28;13.40;98.40
42905;DHT22;28550;51.228;4.528;2022-10-22T02:37:55;13.30;99.30
42905;DHT22;28550;51.228;4.528;2022-10-22T02:40:21;13.30;99.60
42905;DHT22;28550;51.228;4.528;2022-10-22T02:42:47;13.40;99.10
42905;DHT22;28550;51.228;4.528;2022-10-22T02:45:13;13.30;98.60
42905;DHT22;28550;51.228;4.528;2022-10-22T02:47:40;13.20;98.60
42905;DHT22;28550;51.228;4.528;2022-10-22T02:50:05;13.20;98.80
42905;DHT22;28550;51.228;4.528;2022-10-22T02:52:31;13.20;99.50
42905;DHT22;28550;51.228;4.528;2022-10-22T02:54:57;13.20;98.80
42905;DHT22;28550;51.228;4.528;2022-10-22T02:57:22;13.20;98.70
42905;DHT22;28550;51.228;4.528;2022-10-22T02:59:48;13.20;98.30
42905;DHT22;28550;51.228;4.528;2022-10-22T03:02:13;13.20;98.80
42905;DHT22;28550;51.228;4.528;2022-10-22T03:04:39;13.20;98.40
42905;DHT22;28550;51.228;4.528;2022-10-22T03:07:04;13.20;98.20
42905;DHT22;28550;51.228;4.528;2022-10-22T03:09:30;13.30;98.90
42905;DHT22;28550;51.228;4.528;2022-10-22T03:11:56;13.30;98.90
42905;DHT22;28550;51.228;4.528;2022-10-22T03:14:21;13.20;98.90
42905;DHT22;28550;51.228;4.528;2022-10-22T03:16:47;13.20;98.60
42905;DHT22;28550;51.228;4.528;2022-10-22T03:19:12;13.10;99.30
42905;DHT22;28550;51.228;4.528;2022-10-22T03:21:40;13.20;99.60
42905;DHT22;28550;51.228;4.528;2022-10-22T03:24:11;13.30;99.90
42905;DHT22;28550;51.228;4.528;2022-10-22T03:26:37;13.20;99.90
42905;DHT22;28550;51.228;4.528;2022-10-22T03:29:04;13.10;99.90
42905;DHT22;28550;51.228;4.528;2022-10-22T03:31:29;13.20;99.80
42905;DHT22;28550;51.228;4.528;2022-10-22T03:33:55;13.10;99.60
42905;DHT22;28550;51.228;4.528;2022-10-22T03:36:20;13.10;99.40
42905;DHT22;28550;51.228;4.528;2022-10-22T03:38:46;13.20;99.10
42905;DHT22;28550;51.228;4.528;2022-10-22T03:41:11;13.30;99.70
42905;DHT22;28550;51.228;4.528;2022-10-22T03:43:37;13.40;99.60
42905;DHT22;28550;51.228;4.528;2022-10-22T03:46:03;13.40;99.90
42905;DHT22;28550;51.228;4.528;2022-10-22T03:48:29;13.40;99.90
42905;DHT22;28550;51.228;4.528;2022-10-22T03:50:54;13.60;99.90
42905;DHT22;28550;51.228;4.528;2022-10-22T03:53:20;13.60;99.90
42905;DHT22;28550;51.228;4.528;2022-10-22T03:55:45;13.60;99.90
42905;DHT22;28550;51.228;4.528;2022-10-22T03:58:11;13.60;99.90
42905;DHT22;28550;51.228;4.528;2022-10-22T04:00:36;13.60;99.90
42905;DHT22;28550;51.228;4.528;2022-10-22T04:03:02;13.70;99.90
42905;DHT22;28550;51.228;4.528;2022-10-22T04:05:28;13.70;99.90
42905;DHT22;28550;51.228;4.528;2022-10-22T04:10:52;13.80;99.90
42905;DHT22;28550;51.228;4.528;2022-10-22T04:13:17;13.80;99.90
42905;DHT22;28550;51.228;4.528;2022-10-22T04:15:43;13.80;99.90
42905;DHT22;28550;51.228;4.528;2022-10-22T04:18:08;13.80;99.90
42905;DHT22;28550;51.228;4.528;2022-10-22T04:20:34;13.90;99.90
42905;DHT22;28550;51.228;4.528;2022-10-22T04:22:59;14.00;99.40
42905;DHT22;28550;51.228;4.528;2022-10-22T04:25:26;14.00;99.00
42905;DHT22;28550;51.228;4.528;2022-10-22T04:27:51;14.00;99.40
42905;DHT22;28550;51.228;4.528;2022-10-22T04:30:17;14.10;98.60
42905;DHT22;28550;51.228;4.528;2022-10-22T04:32:42;14.10;99.10
42905;DHT22;28550;51.228;4.528;2022-10-22T04:35:08;14.10;98.20
42905;DHT22;28550;51.228;4.528;2022-10-22T04:37:33;14.20;98.10
42905;DHT22;28550;51.228;4.528;2022-10-22T04:39:59;14.20;98.20
42905;DHT22;28550;51.228;4.528;2022-10-22T04:42:26;14.30;98.10
42905;DHT22;28550;51.228;4.528;2022-10-22T04:44:51;14.20;98.10
42905;DHT22;28550;51.228;4.528;2022-10-22T04:47:17;14.20;97.60
42905;DHT22;28550;51.228;4.528;2022-10-22T04:49:42;14.20;97.50
42905;DHT22;28550;51.228;4.528;2022-10-22T04:52:09;14.20;97.70
42905;DHT22;28550;51.228;4.528;2022-10-22T04:54:36;14.20;97.40
42905;DHT22;28550;51.228;4.528;2022-10-22T04:57:02;14.20;96.80
42905;DHT22;28550;51.228;4.528;2022-10-22T04:59:27;14.20;97.20
42905;DHT22;28550;51.228;4.528;2022-10-22T05:01:53;14.20;96.40
42905;DHT22;28550;51.228;4.528;2022-10-22T05:04:19;14.30;96.60
42905;DHT22;28550;51.228;4.528;2022-10-22T05:06:44;14.20;95.90
42905;DHT22;28550;51.228;4.528;2022-10-22T05:09:16;14.30;95.70
42905;DHT22;28550;51.228;4.528;2022-10-22T05:11:42;14.30;96.40
42905;DHT22;28550;51.228;4.528;2022-10-22T05:14:13;14.30;95.90
42905;DHT22;28550;51.228;4.528;2022-10-22T05:16:39;14.50;94.90
42905;DHT22;28550;51.228;4.528;2022-10-22T05:19:05;14.50;93.70
42905;DHT22;28550;51.228;4.528;2022-10-22T05:21:31;14.30;95.20
42905;DHT22;28550;51.228;4.528;2022-10-22T05:23:56;14.20;94.60
42905;DHT22;28550;51.228;4.528;2022-10-22T05:26:24;14.30;96.20
42905;DHT22;28550;51.228;4.528;2022-10-22T05:28:50;14.30;95.20
42905;DHT22;28550;51.228;4.528;2022-10-22T05:31:16;14.30;93.60
42905;DHT22;28550;51.228;4.528;2022-10-22T05:33:41;14.40;93.10
42905;DHT22;28550;51.228;4.528;2022-10-22T05:36:08;14.50;92.60
42905;DHT22;28550;51.228;4.528;2022-10-22T05:38:35;14.40;93.30
42905;DHT22;28550;51.228;4.528;2022-10-22T05:41:04;14.40;92.50
42905;DHT22;28550;51.228;4.528;2022-10-22T05:43:30;14.30;93.40
42905;DHT22;28550;51.228;4.528;2022-10-22T05:45:59;14.30;93.00
42905;DHT22;28550;51.228;4.528;2022-10-22T05:48:25;14.30;93.90
42905;DHT22;28550;51.228;4.528;2022-10-22T05:50:50;14.40;92.20
42905;DHT22;28550;51.228;4.528;2022-10-22T05:53:16;14.30;92.70
42905;DHT22;28550;51.228;4.528;2022-10-22T05:55:42;14.30;93.40
42905;DHT22;28550;51.228;4.528;2022-10-22T05:58:09;14.30;93.60
42905;DHT22;28550;51.228;4.528;2022-10-22T06:00:34;14.20;93.60
42905;DHT22;28550;51.228;4.528;2022-10-22T06:03:00;14.20;93.70
42905;DHT22;28550;51.228;4.528;2022-10-22T06:05:25;14.20;94.10
42905;DHT22;28550;51.228;4.528;2022-10-22T06:07:51;14.20;93.00
42905;DHT22;28550;51.228;4.528;2022-10-22T06:10:17;14.20;93.00
42905;DHT22;28550;51.228;4.528;2022-10-22T06:12:43;14.00;94.40
42905;DHT22;28550;51.228;4.528;2022-10-22T06:15:10;14.10;94.60
42905;DHT22;28550;51.228;4.528;2022-10-22T06:17:38;14.20;93.90
42905;DHT22;28550;51.228;4.528;2022-10-22T06:20:04;14.20;94.10
42905;DHT22;28550;51.228;4.528;2022-10-22T06:22:31;14.20;93.80
42905;DHT22;28550;51.228;4.528;2022-10-22T06:24:58;14.20;94.60
42905;DHT22;28550;51.228;4.528;2022-10-22T06:27:26;14.30;93.60
42905;DHT22;28550;51.228;4.528;2022-10-22T06:29:52;14.40;91.80
42905;DHT22;28550;51.228;4.528;2022-10-22T06:32:17;14.40;92.40
42905;DHT22;28550;51.228;4.528;2022-10-22T06:34:43;14.40;92.70
42905;DHT22;28550;51.228;4.528;2022-10-22T06:37:09;14.40;92.20
42905;DHT22;28550;51.228;4.528;2022-10-22T06:39:37;14.30;92.80
42905;DHT22;28550;51.228;4.528;2022-10-22T06:42:03;14.40;91.80
42905;DHT22;28550;51.228;4.528;2022-10-22T06:44:28;14.50;92.50
42905;DHT22;28550;51.228;4.528;2022-10-22T06:46:54;14.60;91.80
42905;DHT22;28550;51.228;4.528;2022-10-22T06:49:20;14.70;90.00
42905;DHT22;28550;51.228;4.528;2022-10-22T06:51:48;14.90;88.80
42905;DHT22;28550;51.228;4.528;2022-10-22T06:54:14;15.00;85.80
42905;DHT22;28550;51.228;4.528;2022-10-22T06:56:39;15.10;85.00
42905;DHT22;28550;51.228;4.528;2022-10-22T06:59:05;15.20;82.00
42905;DHT22;28550;51.228;4.528;2022-10-22T07:01:31;15.30;80.70
42905;DHT22;28550;51.228;4.528;2022-10-22T07:03:59;15.30;80.40
42905;DHT22;28550;51.228;4.528;2022-10-22T07:06:25;15.50;75.40
42905;DHT22;28550;51.228;4.528;2022-10-22T07:08:52;15.50;73.80
42905;DHT22;28550;51.228;4.528;2022-10-22T07:11:18;15.60;71.30
42905;DHT22;28550;51.228;4.528;2022-10-22T07:13:44;15.60;73.40
42905;DHT22;28550;51.228;4.528;2022-10-22T07:16:10;15.70;68.40
42905;DHT22;28550;51.228;4.528;2022-10-22T07:18:36;15.60;75.70
42905;DHT22;28550;51.228;4.528;2022-10-22T07:21:03;15.60;72.40
42905;DHT22;28550;51.228;4.528;2022-10-22T07:23:29;15.60;73.10
42905;DHT22;28550;51.228;4.528;2022-10-22T07:25:54;15.60;64.10
42905;DHT22;28550;51.228;4.528;2022-10-22T07:28:21;15.50;70.00
42905;DHT22;28550;51.228;4.528;2022-10-22T07:30:47;15.60;68.60
42905;DHT22;28550;51.228;4.528;2022-10-22T07:33:13;16.10;75.80
42905;DHT22;28550;51.228;4.528;2022-10-22T07:35:38;16.80;50.10
42905;DHT22;28550;51.228;4.528;2022-10-22T07:38:05;17.60;7.40
42905;DHT22;28550;51.228;4.528;2022-10-22T07:40:30;18.30;1.00
42905;DHT22;28550;51.228;4.528;2022-10-22T07:42:56;19.10;99.90
42905;DHT22;28550;51.228;4.528;2022-10-22T07:45:27;19.80;1.00
42905;DHT22;28550;51.228;4.528;2022-10-22T07:47:53;20.30;1.00
42905;DHT22;28550;51.228;4.528;2022-10-22T07:50:18;20.70;1.00
42905;DHT22;28550;51.228;4.528;2022-10-22T07:52:44;21.00;1.00
42905;DHT22;28550;51.228;4.528;2022-10-22T07:55:27;21.50;18.60
42905;DHT22;28550;51.228;4.528;2022-10-22T10:16:30;22.50;1.00
42905;DHT22;28550;51.228;4.528;2022-10-22T10:22:03;21.40;1.00
42905;DHT22;28550;51.228;4.528;2022-10-22T10:24:49;21.60;1.00
42905;DHT22;28550;51.228;4.528;2022-10-22T11:16:58;21.40;99.90
42905;DHT22;28550;51.228;4.528;2022-10-22T11:21:54;21.80;99.90
42905;DHT22;28550;51.228;4.528;2022-10-22T11:24:29;22.70;1.00
42905;DHT22;28550;51.228;4.528;2022-10-22T11:27:01;22.70;99.90
42905;DHT22;28550;51.228;4.528;2022-10-22T11:29:40;22.20;99.90
42905;DHT22;28550;51.228;4.528;2022-10-22T11:32:16;21.70;99.90
42905;DHT22;28550;51.228;4.528;2022-10-22T11:35:02;21.40;1.00
42905;DHT22;28550;51.228;4.528;2022-10-22T11:37:30;21.30;1.00
42905;DHT22;28550;51.228;4.528;2022-10-22T11:40:07;21.10;1.00
42905;DHT22;28550;51.228;4.528;2022-10-22T11:42:44;20.80;99.90
42905;DHT22;28550;51.228;4.528;2022-10-22T11:50:22;20.20;99.90
42905;DHT22;28550;51.228;4.528;2022-10-22T11:52:54;19.90;1.00
42905;DHT22;28550;51.228;4.528;2022-10-22T11:55:41;19.70;1.00
42905;DHT22;28550;51.228;4.528;2022-10-22T12:03:37;19.80;99.90
42905;DHT22;28550;51.228;4.528;2022-10-22T12:17:03;22.40;1.00
42905;DHT22;28550;51.228;4.528;2022-10-22T12:22:28;23.70;1.00
42905;DHT22;28550;51.228;4.528;2022-10-22T13:01:38;30.40;99.90
42905;DHT22;28550;51.228;4.528;2022-10-22T13:06:47;30.40;99.90
42905;DHT22;28550;51.228;4.528;2022-10-22T13:09:45;30.70;99.90
42905;DHT22;28550;51.228;4.528;2022-10-22T13:12:36;31.10;99.90
42905;DHT22;28550;51.228;4.528;2022-10-22T13:17:49;30.30;99.90
42905;DHT22;28550;51.228;4.528;2022-10-22T13:20:21;29.00;99.90
42905;DHT22;28550;51.228;4.528;2022-10-22T13:23:32;28.20;99.90
42905;DHT22;28550;51.228;4.528;2022-10-22T13:26:17;27.60;99.90
42905;DHT22;28550;51.228;4.528;2022-10-22T13:29:09;27.50;99.90
42905;DHT22;28550;51.228;4.528;2022-10-22T13:31:43;26.90;99.90
42905;DHT22;28550;51.228;4.528;2022-10-22T13:34:20;26.50;99.90
42905;DHT22;28550;51.228;4.528;2022-10-22T13:36:47;25.90;99.90
42905;DHT22;28550;51.228;4.528;2022-10-22T13:55:35;29.50;99.90
42905;DHT22;28550;51.228;4.528;2022-10-22T13:58:28;29.70;99.90
42905;DHT22;28550;51.228;4.528;2022-10-22T14:03:37;30.50;99.90
42905;DHT22;28550;51.228;4.528;2022-10-22T14:55:55;21.90;1.00
42905;DHT22;28550;51.228;4.528;2022-10-22T18:03:13;15.70;57.80
42905;DHT22;28550;51.228;4.528;2022-10-22T18:05:39;15.70;59.70
42905;DHT22;28550;51.228;4.528;2022-10-22T18:08:14;15.60;58.80
42905;DHT22;28550;51.228;4.528;2022-10-22T18:34:29;15.20;77.90
42905;DHT22;28550;51.228;4.528;2022-10-22T18:36:55;15.10;78.00
